sensor_id;sensor_type;location;lat;lon;timestamp;temperature;humidity
77613;DHT22;66777;52.282;5.960;2023-06-22T00:00:42;17.90;76.10
77613;DHT22;66777;52.282;5.960;2023-06-22T00:03:07;17.80;76.20
77613;DHT22;66777;52.282;5.960;2023-06-22T00:05:33;17.60;76.70
77613;DHT22;66777;52.282;5.960;2023-06-22T00:08:02;17.50;76.90
77613;DHT22;66777;52.282;5.960;2023-06-22T00:10:29;17.60;76.80
77613;DHT22;66777;52.282;5.960;2023-06-22T00:12:55;17.60;76.80
77613;DHT22;66777;52.282;5.960;2023-06-22T00:15:20;17.50;77.00
77613;DHT22;66777;52.282;5.960;2023-06-22T00:17:46;17.60;76.80
77613;DHT22;66777;52.282;5.960;2023-06-22T00:20:11;17.80;76.50
77613;DHT22;66777;52.282;5.960;2023-06-22T00:22:37;17.70;76.20
77613;DHT22;66777;52.282;5.960;2023-06-22T00:25:08;17.50;76.50
77613;DHT22;66777;52.282;5.960;2023-06-22T00:27:34;17.50;76.90
77613;DHT22;66777;52.282;5.960;2023-06-22T00:30:00;17.60;76.50
77613;DHT22;66777;52.282;5.960;2023-06-22T00:32:26;17.50;76.60
77613;DHT22;66777;52.282;5.960;2023-06-22T00:34:51;17.50;76.70
77613;DHT22;66777;52.282;5.960;2023-06-22T00:37:17;17.40;76.80
77613;DHT22;66777;52.282;5.960;2023-06-22T00:39:43;17.30;77.00
77613;DHT22;66777;52.282;5.960;2023-06-22T00:42:09;17.30;77.20
77613;DHT22;66777;52.282;5.960;2023-06-22T00:44:35;17.40;76.90
77613;DHT22;66777;52.282;5.960;2023-06-22T00:47:02;17.30;76.90
77613;DHT22;66777;52.282;5.960;2023-06-22T00:49:28;17.20;77.10
77613;DHT22;66777;52.282;5.960;2023-06-22T00:51:53;17.10;77.40
77613;DHT22;66777;52.282;5.960;2023-06-22T00:54:20;17.20;77.10
77613;DHT22;66777;52.282;5.960;2023-06-22T00:56:51;17.30;76.80
77613;DHT22;66777;52.282;5.960;2023-06-22T00:59:20;17.30;76.70
77613;DHT22;66777;52.282;5.960;2023-06-22T01:01:45;17.20;76.80
77613;DHT22;66777;52.282;5.960;2023-06-22T01:04:11;17.20;77.00
77613;DHT22;66777;52.282;5.960;2023-06-22T01:06:45;17.40;76.50
77613;DHT22;66777;52.282;5.960;2023-06-22T01:09:21;17.40;76.20
77613;DHT22;66777;52.282;5.960;2023-06-22T01:11:56;17.10;76.70
77613;DHT22;66777;52.282;5.960;2023-06-22T01:14:40;17.00;77.40
77613;DHT22;66777;52.282;5.960;2023-06-22T01:17:08;17.00;77.20
77613;DHT22;66777;52.282;5.960;2023-06-22T01:19:37;17.10;76.80
77613;DHT22;66777;52.282;5.960;2023-06-22T01:22:05;17.00;76.90
77613;DHT22;66777;52.282;5.960;2023-06-22T01:24:59;16.70;77.30
77613;DHT22;66777;52.282;5.960;2023-06-22T01:30:11;16.40;78.00
77613;DHT22;66777;52.282;5.960;2023-06-22T01:32:38;16.50;77.80
77613;DHT22;66777;52.282;5.960;2023-06-22T01:35:06;16.50;77.50
77613;DHT22;66777;52.282;5.960;2023-06-22T01:37:34;16.40;77.30
77613;DHT22;66777;52.282;5.960;2023-06-22T01:40:01;16.10;77.70
77613;DHT22;66777;52.282;5.960;2023-06-22T01:42:27;15.90;78.00
77613;DHT22;66777;52.282;5.960;2023-06-22T01:44:53;15.80;78.40
77613;DHT22;66777;52.282;5.960;2023-06-22T01:47:24;15.80;78.50
77613;DHT22;66777;52.282;5.960;2023-06-22T01:49:50;15.80;78.60
77613;DHT22;66777;52.282;5.960;2023-06-22T01:52:19;16.00;78.10
77613;DHT22;66777;52.282;5.960;2023-06-22T01:54:46;16.20;77.30
77613;DHT22;66777;52.282;5.960;2023-06-22T01:57:12;16.40;77.00
77613;DHT22;66777;52.282;5.960;2023-06-22T01:59:49;16.30;77.00
77613;DHT22;66777;52.282;5.960;2023-06-22T02:02:20;16.30;77.20
77613;DHT22;66777;52.282;5.960;2023-06-22T02:04:58;16.50;76.90
77613;DHT22;66777;52.282;5.960;2023-06-22T02:07:29;16.70;76.30
77613;DHT22;66777;52.282;5.960;2023-06-22T02:09:58;16.80;76.10
77613;DHT22;66777;52.282;5.960;2023-06-22T02:12:25;16.70;75.90
77613;DHT22;66777;52.282;5.960;2023-06-22T02:14:52;16.50;76.50
77613;DHT22;66777;52.282;5.960;2023-06-22T02:17:18;16.50;76.70
77613;DHT22;66777;52.282;5.960;2023-06-22T02:19:44;16.40;76.60
77613;DHT22;66777;52.282;5.960;2023-06-22T02:22:10;16.40;77.00
77613;DHT22;66777;52.282;5.960;2023-06-22T02:24:35;16.40;76.80
77613;DHT22;66777;52.282;5.960;2023-06-22T02:27:02;16.30;76.90
77613;DHT22;66777;52.282;5.960;2023-06-22T02:29:28;16.40;76.70
77613;DHT22;66777;52.282;5.960;2023-06-22T02:31:54;16.60;76.10
77613;DHT22;66777;52.282;5.960;2023-06-22T02:34:21;16.60;75.80
77613;DHT22;66777;52.282;5.960;2023-06-22T02:36:47;16.60;75.90
77613;DHT22;66777;52.282;5.960;2023-06-22T02:39:18;16.60;75.70
77613;DHT22;66777;52.282;5.960;2023-06-22T02:41:44;16.50;76.10
77613;DHT22;66777;52.282;5.960;2023-06-22T02:44:09;16.50;75.90
77613;DHT22;66777;52.282;5.960;2023-06-22T02:46:36;16.40;76.00
77613;DHT22;66777;52.282;5.960;2023-06-22T02:49:01;16.50;76.10
77613;DHT22;66777;52.282;5.960;2023-06-22T02:51:27;16.40;76.30
77613;DHT22;66777;52.282;5.960;2023-06-22T02:53:52;16.40;76.20
77613;DHT22;66777;52.282;5.960;2023-06-22T02:56:22;16.40;76.30
77613;DHT22;66777;52.282;5.960;2023-06-22T02:58:50;16.50;75.90
77613;DHT22;66777;52.282;5.960;2023-06-22T03:01:16;16.60;75.70
77613;DHT22;66777;52.282;5.960;2023-06-22T03:03:42;16.60;75.60
77613;DHT22;66777;52.282;5.960;2023-06-22T03:06:07;16.70;75.40
77613;DHT22;66777;52.282;5.960;2023-06-22T03:08:33;16.60;75.40
77613;DHT22;66777;52.282;5.960;2023-06-22T03:10:59;16.50;75.50
77613;DHT22;66777;52.282;5.960;2023-06-22T03:13:24;16.50;75.30
77613;DHT22;66777;52.282;5.960;2023-06-22T03:15:50;16.30;75.60
77613;DHT22;66777;52.282;5.960;2023-06-22T03:18:15;16.00;76.20
77613;DHT22;66777;52.282;5.960;2023-06-22T03:20:41;16.00;76.30
77613;DHT22;66777;52.282;5.960;2023-06-22T03:23:07;16.10;75.90
77613;DHT22;66777;52.282;5.960;2023-06-22T03:25:32;16.00;76.00
77613;DHT22;66777;52.282;5.960;2023-06-22T03:27:59;16.00;76.10
77613;DHT22;66777;52.282;5.960;2023-06-22T03:30:26;15.80;76.30
77613;DHT22;66777;52.282;5.960;2023-06-22T03:32:52;15.60;76.80
77613;DHT22;66777;52.282;5.960;2023-06-22T03:35:17;15.50;77.10
77613;DHT22;66777;52.282;5.960;2023-06-22T03:37:43;15.40;77.20
77613;DHT22;66777;52.282;5.960;2023-06-22T03:40:09;15.40;77.20
77613;DHT22;66777;52.282;5.960;2023-06-22T03:42:34;15.50;77.20
77613;DHT22;66777;52.282;5.960;2023-06-22T03:45:04;15.80;76.60
77613;DHT22;66777;52.282;5.960;2023-06-22T03:47:30;16.00;76.10
77613;DHT22;66777;52.282;5.960;2023-06-22T03:49:56;16.20;75.50
77613;DHT22;66777;52.282;5.960;2023-06-22T03:52:22;16.40;75.20
77613;DHT22;66777;52.282;5.960;2023-06-22T03:54:48;16.40;75.00
77613;DHT22;66777;52.282;5.960;2023-06-22T03:57:13;16.40;75.00
77613;DHT22;66777;52.282;5.960;2023-06-22T03:59:39;16.20;75.40
77613;DHT22;66777;52.282;5.960;2023-06-22T04:02:05;16.00;76.10
77613;DHT22;66777;52.282;5.960;2023-06-22T04:04:30;16.10;76.20
77613;DHT22;66777;52.282;5.960;2023-06-22T04:06:56;16.20;75.80
77613;DHT22;66777;52.282;5.960;2023-06-22T04:09:21;16.40;75.70
77613;DHT22;66777;52.282;5.960;2023-06-22T04:11:47;16.50;75.60
77613;DHT22;66777;52.282;5.960;2023-06-22T04:14:13;16.60;75.60
77613;DHT22;66777;52.282;5.960;2023-06-22T04:16:38;16.60;75.30
77613;DHT22;66777;52.282;5.960;2023-06-22T04:19:04;16.50;75.40
77613;DHT22;66777;52.282;5.960;2023-06-22T04:21:29;16.60;75.50
77613;DHT22;66777;52.282;5.960;2023-06-22T04:23:55;16.70;75.90
77613;DHT22;66777;52.282;5.960;2023-06-22T04:26:21;16.80;75.80
77613;DHT22;66777;52.282;5.960;2023-06-22T04:28:47;16.90;76.00
77613;DHT22;66777;52.282;5.960;2023-06-22T04:31:17;17.00;76.10
77613;DHT22;66777;52.282;5.960;2023-06-22T04:33:44;17.10;76.40
77613;DHT22;66777;52.282;5.960;2023-06-22T04:36:10;17.20;76.40
77613;DHT22;66777;52.282;5.960;2023-06-22T04:38:39;17.20;76.50
77613;DHT22;66777;52.282;5.960;2023-06-22T04:41:04;17.20;76.50
77613;DHT22;66777;52.282;5.960;2023-06-22T04:43:30;17.20;76.60
77613;DHT22;66777;52.282;5.960;2023-06-22T04:45:58;17.20;76.60
77613;DHT22;66777;52.282;5.960;2023-06-22T04:48:31;17.30;76.80
77613;DHT22;66777;52.282;5.960;2023-06-22T04:51:01;17.40;77.00
77613;DHT22;66777;52.282;5.960;2023-06-22T04:53:29;17.50;77.00
77613;DHT22;66777;52.282;5.960;2023-06-22T04:55:55;17.50;77.10
77613;DHT22;66777;52.282;5.960;2023-06-22T04:58:21;17.50;77.10
77613;DHT22;66777;52.282;5.960;2023-06-22T05:00:47;17.60;77.20
77613;DHT22;66777;52.282;5.960;2023-06-22T05:03:12;17.60;77.40
77613;DHT22;66777;52.282;5.960;2023-06-22T05:05:38;17.80;77.50
77613;DHT22;66777;52.282;5.960;2023-06-22T05:08:04;17.80;77.70
77613;DHT22;66777;52.282;5.960;2023-06-22T05:10:34;17.80;77.50
77613;DHT22;66777;52.282;5.960;2023-06-22T05:13:00;18.00;77.50
77613;DHT22;66777;52.282;5.960;2023-06-22T05:15:26;18.00;77.70
77613;DHT22;66777;52.282;5.960;2023-06-22T05:17:55;18.10;77.50
77613;DHT22;66777;52.282;5.960;2023-06-22T05:20:21;18.10;78.10
77613;DHT22;66777;52.282;5.960;2023-06-22T05:22:47;18.20;77.70
77613;DHT22;66777;52.282;5.960;2023-06-22T05:25:13;18.20;77.60
77613;DHT22;66777;52.282;5.960;2023-06-22T05:27:38;18.30;77.70
77613;DHT22;66777;52.282;5.960;2023-06-22T05:30:09;18.30;77.80
77613;DHT22;66777;52.282;5.960;2023-06-22T05:32:36;18.40;77.90
77613;DHT22;66777;52.282;5.960;2023-06-22T05:35:02;18.40;77.90
77613;DHT22;66777;52.282;5.960;2023-06-22T05:37:29;18.50;77.90
77613;DHT22;66777;52.282;5.960;2023-06-22T05:39:54;18.60;77.80
77613;DHT22;66777;52.282;5.960;2023-06-22T05:42:21;18.70;77.70
77613;DHT22;66777;52.282;5.960;2023-06-22T05:44:47;18.80;77.70
77613;DHT22;66777;52.282;5.960;2023-06-22T05:47:13;18.90;77.60
77613;DHT22;66777;52.282;5.960;2023-06-22T05:49:38;18.90;77.60
77613;DHT22;66777;52.282;5.960;2023-06-22T05:52:04;19.00;77.30
77613;DHT22;66777;52.282;5.960;2023-06-22T05:54:30;19.10;77.30
77613;DHT22;66777;52.282;5.960;2023-06-22T05:56:56;19.20;77.30
77613;DHT22;66777;52.282;5.960;2023-06-22T05:59:21;19.20;77.20
77613;DHT22;66777;52.282;5.960;2023-06-22T06:01:47;19.20;77.20
77613;DHT22;66777;52.282;5.960;2023-06-22T06:04:18;19.30;77.10
77613;DHT22;66777;52.282;5.960;2023-06-22T06:06:45;19.40;77.00
77613;DHT22;66777;52.282;5.960;2023-06-22T06:09:13;19.50;76.90
77613;DHT22;66777;52.282;5.960;2023-06-22T06:11:39;19.50;76.80
77613;DHT22;66777;52.282;5.960;2023-06-22T06:14:05;19.50;76.70
77613;DHT22;66777;52.282;5.960;2023-06-22T06:16:30;19.60;76.70
77613;DHT22;66777;52.282;5.960;2023-06-22T06:18:56;19.70;76.50
77613;DHT22;66777;52.282;5.960;2023-06-22T06:21:22;19.70;76.40
77613;DHT22;66777;52.282;5.960;2023-06-22T06:23:48;19.70;76.40
77613;DHT22;66777;52.282;5.960;2023-06-22T06:26:13;19.90;76.20
77613;DHT22;66777;52.282;5.960;2023-06-22T06:28:42;19.90;76.10
77613;DHT22;66777;52.282;5.960;2023-06-22T06:31:08;20.00;75.90
77613;DHT22;66777;52.282;5.960;2023-06-22T06:33:34;20.10;75.50
77613;DHT22;66777;52.282;5.960;2023-06-22T06:35:59;20.30;75.40
77613;DHT22;66777;52.282;5.960;2023-06-22T06:38:27;20.30;75.20
77613;DHT22;66777;52.282;5.960;2023-06-22T06:40:53;20.50;75.00
77613;DHT22;66777;52.282;5.960;2023-06-22T06:43:19;20.50;74.70
77613;DHT22;66777;52.282;5.960;2023-06-22T06:45:44;20.70;74.40
77613;DHT22;66777;52.282;5.960;2023-06-22T06:48:10;20.70;74.20
77613;DHT22;66777;52.282;5.960;2023-06-22T06:50:35;20.80;74.20
77613;DHT22;66777;52.282;5.960;2023-06-22T06:53:01;20.90;73.80
77613;DHT22;66777;52.282;5.960;2023-06-22T06:55:27;21.00;73.70
77613;DHT22;66777;52.282;5.960;2023-06-22T06:57:58;21.10;73.40
77613;DHT22;66777;52.282;5.960;2023-06-22T10:05:37;25.70;60.00
77613;DHT22;66777;52.282;5.960;2023-06-22T10:08:03;26.60;58.10
77613;DHT22;66777;52.282;5.960;2023-06-22T10:10:29;26.50;58.00
77613;DHT22;66777;52.282;5.960;2023-06-22T10:12:57;26.20;58.00
77613;DHT22;66777;52.282;5.960;2023-06-22T10:15:23;26.00;58.20
77613;DHT22;66777;52.282;5.960;2023-06-22T10:17:49;25.80;58.60
77613;DHT22;66777;52.282;5.960;2023-06-22T10:20:15;25.70;58.70
77613;DHT22;66777;52.282;5.960;2023-06-22T10:22:44;25.60;59.00
77613;DHT22;66777;52.282;5.960;2023-06-22T10:25:11;25.60;59.00
77613;DHT22;66777;52.282;5.960;2023-06-22T10:27:37;25.50;59.10
77613;DHT22;66777;52.282;5.960;2023-06-22T10:30:06;25.30;59.20
77613;DHT22;66777;52.282;5.960;2023-06-22T10:32:32;25.30;59.20
77613;DHT22;66777;52.282;5.960;2023-06-22T10:34:58;25.30;59.40
77613;DHT22;66777;52.282;5.960;2023-06-22T10:37:24;25.30;59.40
77613;DHT22;66777;52.282;5.960;2023-06-22T10:39:50;25.30;59.70
77613;DHT22;66777;52.282;5.960;2023-06-22T10:42:16;25.30;59.70
77613;DHT22;66777;52.282;5.960;2023-06-22T10:44:41;25.30;59.70
77613;DHT22;66777;52.282;5.960;2023-06-22T10:47:09;25.30;59.90
77613;DHT22;66777;52.282;5.960;2023-06-22T10:49:37;25.20;60.20
77613;DHT22;66777;52.282;5.960;2023-06-22T10:52:03;25.20;60.40
77613;DHT22;66777;52.282;5.960;2023-06-22T10:54:29;25.20;60.70
77613;DHT22;66777;52.282;5.960;2023-06-22T10:56:54;25.20;60.60
77613;DHT22;66777;52.282;5.960;2023-06-22T10:59:20;25.20;60.50
77613;DHT22;66777;52.282;5.960;2023-06-22T11:01:46;25.10;60.30
77613;DHT22;66777;52.282;5.960;2023-06-22T11:04:12;25.10;59.90
77613;DHT22;66777;52.282;5.960;2023-06-22T11:06:37;25.10;59.70
77613;DHT22;66777;52.282;5.960;2023-06-22T11:09:03;25.10;59.70
77613;DHT22;66777;52.282;5.960;2023-06-22T11:11:29;25.10;59.90
77613;DHT22;66777;52.282;5.960;2023-06-22T11:13:55;25.10;60.00
77613;DHT22;66777;52.282;5.960;2023-06-22T11:16:20;25.20;60.00
77613;DHT22;66777;52.282;5.960;2023-06-22T11:18:46;25.20;60.20
77613;DHT22;66777;52.282;5.960;2023-06-22T11:21:11;25.30;60.10
77613;DHT22;66777;52.282;5.960;2023-06-22T11:23:46;25.30;60.20
77613;DHT22;66777;52.282;5.960;2023-06-22T11:26:12;25.40;60.10
77613;DHT22;66777;52.282;5.960;2023-06-22T11:28:37;25.40;60.10
77613;DHT22;66777;52.282;5.960;2023-06-22T11:31:13;25.40;60.00
77613;DHT22;66777;52.282;5.960;2023-06-22T11:33:39;25.40;60.00
77613;DHT22;66777;52.282;5.960;2023-06-22T11:36:05;25.40;60.00
77613;DHT22;66777;52.282;5.960;2023-06-22T11:38:30;25.50;59.80
77613;DHT22;66777;52.282;5.960;2023-06-22T11:40:58;25.60;59.60
77613;DHT22;66777;52.282;5.960;2023-06-22T11:43:23;25.70;59.40
77613;DHT22;66777;52.282;5.960;2023-06-22T11:45:50;25.80;59.10
77613;DHT22;66777;52.282;5.960;2023-06-22T11:48:16;25.80;59.00
77613;DHT22;66777;52.282;5.960;2023-06-22T11:50:42;25.80;59.00
77613;DHT22;66777;52.282;5.960;2023-06-22T11:53:08;25.70;59.10
77613;DHT22;66777;52.282;5.960;2023-06-22T11:55:33;25.70;59.20
77613;DHT22;66777;52.282;5.960;2023-06-22T11:57:59;25.60;59.30
77613;DHT22;66777;52.282;5.960;2023-06-22T12:00:28;25.60;59.30
77613;DHT22;66777;52.282;5.960;2023-06-22T12:02:55;25.60;59.60
77613;DHT22;66777;52.282;5.960;2023-06-22T12:05:22;25.60;59.80
77613;DHT22;66777;52.282;5.960;2023-06-22T12:07:48;25.50;60.00
77613;DHT22;66777;52.282;5.960;2023-06-22T12:10:14;25.40;60.00
77613;DHT22;66777;52.282;5.960;2023-06-22T12:12:40;25.30;60.00
77613;DHT22;66777;52.282;5.960;2023-06-22T12:15:06;25.30;60.30
77613;DHT22;66777;52.282;5.960;2023-06-22T12:17:33;25.30;60.40
77613;DHT22;66777;52.282;5.960;2023-06-22T12:19:59;25.20;60.70
77613;DHT22;66777;52.282;5.960;2023-06-22T12:22:25;25.20;61.10
77613;DHT22;66777;52.282;5.960;2023-06-22T12:24:50;25.00;61.40
77613;DHT22;66777;52.282;5.960;2023-06-22T12:27:17;25.00;61.50
77613;DHT22;66777;52.282;5.960;2023-06-22T12:29:46;25.00;61.30
77613;DHT22;66777;52.282;5.960;2023-06-22T12:32:12;25.00;61.50
77613;DHT22;66777;52.282;5.960;2023-06-22T12:34:39;25.00;61.40
77613;DHT22;66777;52.282;5.960;2023-06-22T12:37:05;25.00;61.30
77613;DHT22;66777;52.282;5.960;2023-06-22T12:39:32;25.00;61.40
77613;DHT22;66777;52.282;5.960;2023-06-22T12:41:57;25.00;61.50
77613;DHT22;66777;52.282;5.960;2023-06-22T12:44:23;25.00;62.50
77613;DHT22;66777;52.282;5.960;2023-06-22T12:46:49;24.80;63.70
77613;DHT22;66777;52.282;5.960;2023-06-22T12:49:14;24.80;64.70
77613;DHT22;66777;52.282;5.960;2023-06-22T12:51:41;24.60;65.40
77613;DHT22;66777;52.282;5.960;2023-06-22T12:54:07;24.50;66.00
77613;DHT22;66777;52.282;5.960;2023-06-22T12:56:33;24.40;66.40
77613;DHT22;66777;52.282;5.960;2023-06-22T12:58:59;24.40;66.80
77613;DHT22;66777;52.282;5.960;2023-06-22T13:01:27;24.40;67.20
77613;DHT22;66777;52.282;5.960;2023-06-22T13:03:53;24.40;67.30
77613;DHT22;66777;52.282;5.960;2023-06-22T13:06:19;24.40;67.00
77613;DHT22;66777;52.282;5.960;2023-06-22T13:08:44;24.30;67.60
77613;DHT22;66777;52.282;5.960;2023-06-22T13:11:10;24.20;68.70
77613;DHT22;66777;52.282;5.960;2023-06-22T13:13:36;24.00;70.10
77613;DHT22;66777;52.282;5.960;2023-06-22T13:16:01;23.80;71.70
77613;DHT22;66777;52.282;5.960;2023-06-22T13:18:27;23.60;72.90
77613;DHT22;66777;52.282;5.960;2023-06-22T13:20:52;23.40;74.00
77613;DHT22;66777;52.282;5.960;2023-06-22T13:23:20;23.40;75.10
77613;DHT22;66777;52.282;5.960;2023-06-22T13:25:46;23.30;75.70
77613;DHT22;66777;52.282;5.960;2023-06-22T13:28:12;23.20;76.60
77613;DHT22;66777;52.282;5.960;2023-06-22T13:30:40;23.10;77.50
77613;DHT22;66777;52.282;5.960;2023-06-22T13:33:05;23.10;78.00
77613;DHT22;66777;52.282;5.960;2023-06-22T13:35:31;23.10;78.90
77613;DHT22;66777;52.282;5.960;2023-06-22T13:37:56;23.00;79.20
77613;DHT22;66777;52.282;5.960;2023-06-22T13:40:22;22.90;80.10
77613;DHT22;66777;52.282;5.960;2023-06-22T13:42:48;22.80;80.40
77613;DHT22;66777;52.282;5.960;2023-06-22T13:45:13;22.70;81.20
77613;DHT22;66777;52.282;5.960;2023-06-22T13:47:39;22.60;81.70
77613;DHT22;66777;52.282;5.960;2023-06-22T13:50:05;22.50;82.40
77613;DHT22;66777;52.282;5.960;2023-06-22T13:52:31;22.50;82.80
77613;DHT22;66777;52.282;5.960;2023-06-22T13:54:56;22.30;83.80
77613;DHT22;66777;52.282;5.960;2023-06-22T13:57:22;22.20;84.10
77613;DHT22;66777;52.282;5.960;2023-06-22T13:59:47;22.30;84.60
77613;DHT22;66777;52.282;5.960;2023-06-22T14:02:13;22.20;84.10
77613;DHT22;66777;52.282;5.960;2023-06-22T14:04:39;22.20;83.90
77613;DHT22;66777;52.282;5.960;2023-06-22T14:07:04;22.20;83.70
77613;DHT22;66777;52.282;5.960;2023-06-22T14:09:30;22.20;83.50
77613;DHT22;66777;52.282;5.960;2023-06-22T14:11:56;22.20;83.50
77613;DHT22;66777;52.282;5.960;2023-06-22T14:14:21;22.10;83.00
77613;DHT22;66777;52.282;5.960;2023-06-22T14:16:47;22.00;83.30
77613;DHT22;66777;52.282;5.960;2023-06-22T14:19:16;21.90;83.40
77613;DHT22;66777;52.282;5.960;2023-06-22T14:21:42;21.90;83.60
77613;DHT22;66777;52.282;5.960;2023-06-22T14:24:08;21.90;83.90
77613;DHT22;66777;52.282;5.960;2023-06-22T14:26:33;21.90;84.00
77613;DHT22;66777;52.282;5.960;2023-06-22T14:28:59;22.00;84.10
77613;DHT22;66777;52.282;5.960;2023-06-22T14:31:24;22.00;83.70
77613;DHT22;66777;52.282;5.960;2023-06-22T14:33:50;21.90;84.30
77613;DHT22;66777;52.282;5.960;2023-06-22T14:36:16;22.00;84.20
77613;DHT22;66777;52.282;5.960;2023-06-22T14:38:43;22.00;84.00
77613;DHT22;66777;52.282;5.960;2023-06-22T14:41:08;21.90;84.10
77613;DHT22;66777;52.282;5.960;2023-06-22T14:43:34;21.90;83.90
77613;DHT22;66777;52.282;5.960;2023-06-22T14:46:00;21.90;84.20
77613;DHT22;66777;52.282;5.960;2023-06-22T14:48:26;21.90;84.30
77613;DHT22;66777;52.282;5.960;2023-06-22T14:50:51;21.80;84.20
77613;DHT22;66777;52.282;5.960;2023-06-22T14:53:17;21.80;84.60
77613;DHT22;66777;52.282;5.960;2023-06-22T14:55:42;21.90;84.80
77613;DHT22;66777;52.282;5.960;2023-06-22T14:58:10;21.90;85.00
77613;DHT22;66777;52.282;5.960;2023-06-22T15:00:36;21.80;84.90
77613;DHT22;66777;52.282;5.960;2023-06-22T15:03:02;21.70;85.20
77613;DHT22;66777;52.282;5.960;2023-06-22T15:05:28;21.70;85.90
77613;DHT22;66777;52.282;5.960;2023-06-22T15:07:53;21.50;85.80
77613;DHT22;66777;52.282;5.960;2023-06-22T15:10:19;21.40;86.50
77613;DHT22;66777;52.282;5.960;2023-06-22T15:12:44;21.30;87.00
77613;DHT22;66777;52.282;5.960;2023-06-22T15:15:10;21.10;87.30
77613;DHT22;66777;52.282;5.960;2023-06-22T15:17:36;21.10;87.60
77613;DHT22;66777;52.282;5.960;2023-06-22T15:20:02;21.10;87.80
77613;DHT22;66777;52.282;5.960;2023-06-22T15:22:30;21.00;87.80
77613;DHT22;66777;52.282;5.960;2023-06-22T15:24:56;21.00;87.70
77613;DHT22;66777;52.282;5.960;2023-06-22T15:27:23;21.00;87.90
77613;DHT22;66777;52.282;5.960;2023-06-22T15:29:49;20.90;88.20
77613;DHT22;66777;52.282;5.960;2023-06-22T15:32:15;20.90;88.40
77613;DHT22;66777;52.282;5.960;2023-06-22T15:34:40;20.80;88.40
77613;DHT22;66777;52.282;5.960;2023-06-22T15:37:06;20.70;88.80
77613;DHT22;66777;52.282;5.960;2023-06-22T15:39:32;20.60;89.00
77613;DHT22;66777;52.282;5.960;2023-06-22T15:41:57;20.60;89.40
77613;DHT22;66777;52.282;5.960;2023-06-22T15:44:23;20.50;89.50
77613;DHT22;66777;52.282;5.960;2023-06-22T15:46:48;20.50;89.90
77613;DHT22;66777;52.282;5.960;2023-06-22T15:49:15;20.50;90.20
77613;DHT22;66777;52.282;5.960;2023-06-22T15:51:41;20.50;90.10
77613;DHT22;66777;52.282;5.960;2023-06-22T15:54:07;20.50;90.10
77613;DHT22;66777;52.282;5.960;2023-06-22T15:56:32;20.40;90.30
77613;DHT22;66777;52.282;5.960;2023-06-22T15:58:58;20.30;90.10
77613;DHT22;66777;52.282;5.960;2023-06-22T16:01:24;20.20;90.10
77613;DHT22;66777;52.282;5.960;2023-06-22T16:03:50;20.10;90.50
77613;DHT22;66777;52.282;5.960;2023-06-22T16:06:16;20.10;90.60
77613;DHT22;66777;52.282;5.960;2023-06-22T16:08:42;20.00;90.70
77613;DHT22;66777;52.282;5.960;2023-06-22T16:11:08;20.00;90.70
77613;DHT22;66777;52.282;5.960;2023-06-22T16:13:34;20.00;91.00
77613;DHT22;66777;52.282;5.960;2023-06-22T16:16:00;20.00;90.80
77613;DHT22;66777;52.282;5.960;2023-06-22T16:18:26;20.00;90.70
77613;DHT22;66777;52.282;5.960;2023-06-22T16:20:51;20.00;90.90
77613;DHT22;66777;52.282;5.960;2023-06-22T16:23:17;20.00;90.80
77613;DHT22;66777;52.282;5.960;2023-06-22T16:25:43;20.00;90.60
77613;DHT22;66777;52.282;5.960;2023-06-22T16:28:09;20.10;90.70
77613;DHT22;66777;52.282;5.960;2023-06-22T16:30:35;20.10;90.70
77613;DHT22;66777;52.282;5.960;2023-06-22T16:33:01;20.10;90.70
77613;DHT22;66777;52.282;5.960;2023-06-22T16:35:28;20.10;90.60
77613;DHT22;66777;52.282;5.960;2023-06-22T16:37:55;20.10;90.80
77613;DHT22;66777;52.282;5.960;2023-06-22T16:40:22;20.10;90.60
77613;DHT22;66777;52.282;5.960;2023-06-22T16:42:49;20.10;90.90
77613;DHT22;66777;52.282;5.960;2023-06-22T16:45:16;20.20;90.60
77613;DHT22;66777;52.282;5.960;2023-06-22T16:47:43;20.10;91.00
77613;DHT22;66777;52.282;5.960;2023-06-22T16:50:09;20.20;91.10
77613;DHT22;66777;52.282;5.960;2023-06-22T16:52:35;20.10;91.00
77613;DHT22;66777;52.282;5.960;2023-06-22T16:55:06;20.00;91.00
77613;DHT22;66777;52.282;5.960;2023-06-22T16:57:33;20.00;91.30
77613;DHT22;66777;52.282;5.960;2023-06-22T16:59:58;20.10;91.50
77613;DHT22;66777;52.282;5.960;2023-06-22T17:02:25;20.10;91.50
77613;DHT22;66777;52.282;5.960;2023-06-22T17:04:52;20.10;91.60
77613;DHT22;66777;52.282;5.960;2023-06-22T17:07:22;20.10;91.60
77613;DHT22;66777;52.282;5.960;2023-06-22T17:09:50;20.10;91.80
77613;DHT22;66777;52.282;5.960;2023-06-22T17:12:16;20.00;91.80
77613;DHT22;66777;52.282;5.960;2023-06-22T17:14:44;20.00;91.60
77613;DHT22;66777;52.282;5.960;2023-06-22T17:17:16;20.00;91.60
77613;DHT22;66777;52.282;5.960;2023-06-22T17:19:46;20.00;91.70
77613;DHT22;66777;52.282;5.960;2023-06-22T17:22:15;19.90;91.80
77613;DHT22;66777;52.282;5.960;2023-06-22T17:24:40;19.90;92.10
77613;DHT22;66777;52.282;5.960;2023-06-22T17:27:06;19.90;92.30
77613;DHT22;66777;52.282;5.960;2023-06-22T17:29:32;19.90;92.10
77613;DHT22;66777;52.282;5.960;2023-06-22T17:31:58;19.80;92.00
77613;DHT22;66777;52.282;5.960;2023-06-22T17:34:27;19.70;92.00
77613;DHT22;66777;52.282;5.960;2023-06-22T17:36:58;19.70;91.90
77613;DHT22;66777;52.282;5.960;2023-06-22T17:39:26;19.70;92.10
77613;DHT22;66777;52.282;5.960;2023-06-22T17:41:52;19.60;92.00
77613;DHT22;66777;52.282;5.960;2023-06-22T17:44:19;19.50;92.30
77613;DHT22;66777;52.282;5.960;2023-06-22T17:46:45;19.50;92.20
77613;DHT22;66777;52.282;5.960;2023-06-22T17:49:12;19.50;92.10
77613;DHT22;66777;52.282;5.960;2023-06-22T17:51:44;19.50;92.30
77613;DHT22;66777;52.282;5.960;2023-06-22T17:54:11;19.50;92.50
77613;DHT22;66777;52.282;5.960;2023-06-22T17:56:36;19.50;92.50
77613;DHT22;66777;52.282;5.960;2023-06-22T17:59:03;19.50;92.80
77613;DHT22;66777;52.282;5.960;2023-06-22T18:01:32;19.50;92.70
77613;DHT22;66777;52.282;5.960;2023-06-22T18:04:08;19.40;92.50
77613;DHT22;66777;52.282;5.960;2023-06-22T18:06:41;19.40;92.30
77613;DHT22;66777;52.282;5.960;2023-06-22T18:09:07;19.20;92.30
77613;DHT22;66777;52.282;5.960;2023-06-22T18:11:35;19.20;92.40
77613;DHT22;66777;52.282;5.960;2023-06-22T18:14:05;19.10;92.10
77613;DHT22;66777;52.282;5.960;2023-06-22T18:16:33;19.10;92.40
77613;DHT22;66777;52.282;5.960;2023-06-22T18:19:01;19.10;92.50
77613;DHT22;66777;52.282;5.960;2023-06-22T18:21:28;19.00;92.50
77613;DHT22;66777;52.282;5.960;2023-06-22T18:23:55;19.00;92.30
77613;DHT22;66777;52.282;5.960;2023-06-22T18:26:23;18.90;92.10
77613;DHT22;66777;52.282;5.960;2023-06-22T18:28:52;18.80;91.90
77613;DHT22;66777;52.282;5.960;2023-06-22T18:31:23;18.70;92.00
77613;DHT22;66777;52.282;5.960;2023-06-22T18:33:50;18.60;92.20